Time;durP1;ratioP1;P1;durP2;ratioP2;P2;SDS_P1;SDS_P2;PMS_P1;PMS_P2;Temp;Humidity;BMP_temperature;BMP_pressure;BME280_temperature;BME280_humidity;BME280_pressure;Samples;Min_cycle;Max_cycle;Signal;HPM_P1;HPM_P2
2021/05/15 00:02:20;;;;;;;0.90;0.90;;;17.90;47.50;;;;;;5011110;28;20527;-42
2021/05/15 00:04:45;;;;;;;1.20;0.83;;;17.80;47.50;;;;;;5009509;28;20191;-42
2021/05/15 00:07:11;;;;;;;1.90;1.10;;;17.70;47.60;;;;;;5005280;28;20205;-41
2021/05/15 00:09:37;;;;;;;2.60;0.90;;;17.70;47.80;;;;;;5010047;28;20717;-42
2021/05/15 00:12:03;;;;;;;1.77;1.03;;;17.80;47.80;;;;;;5009073;28;20190;-42
2021/05/15 00:14:28;;;;;;;1.03;0.93;;;17.90;47.80;;;;;;5010998;28;20256;-42
2021/05/15 00:16:54;;;;;;;2.80;1.20;;;17.90;47.60;;;;;;5012033;28;20849;-42
2021/05/15 00:19:20;;;;;;;1.03;1.03;;;17.90;47.50;;;;;;5006258;28;20286;-42
2021/05/15 00:21:47;;;;;;;2.50;0.80;;;17.90;47.50;;;;;;5012498;28;20448;-42
2021/05/15 00:24:13;;;;;;;1.53;1.10;;;17.90;47.40;;;;;;5012314;28;20190;-42
2021/05/15 00:26:38;;;;;;;0.90;0.80;;;18.00;47.40;;;;;;5010920;28;20448;-42
2021/05/15 00:29:04;;;;;;;1.00;0.90;;;18.00;47.20;;;;;;5008774;28;20265;-43
2021/05/15 00:31:30;;;;;;;1.27;1.17;;;18.00;47.30;;;;;;5013371;28;20190;-42
2021/05/15 00:33:55;;;;;;;1.00;0.90;;;18.00;47.20;;;;;;5008990;28;20555;-42
2021/05/15 00:36:21;;;;;;;3.13;1.17;;;18.00;47.10;;;;;;5010098;28;20221;-41
2021/05/15 00:38:46;;;;;;;1.07;1.00;;;18.00;47.10;;;;;;5009113;28;20341;-42
2021/05/15 00:41:12;;;;;;;1.37;1.20;;;18.10;46.90;;;;;;5003739;28;20551;-41
2021/05/15 00:43:45;;;;;;;0.87;0.87;;;18.00;46.80;;;;;;5009540;28;21502;-42
2021/05/15 00:46:13;;;;;;;0.97;0.90;;;18.00;46.90;;;;;;5010195;28;20498;-41
2021/05/15 00:48:38;;;;;;;1.30;1.20;;;18.00;46.80;;;;;;5002840;28;20445;-43
2021/05/15 00:51:04;;;;;;;0.80;0.80;;;18.00;46.70;;;;;;5008163;28;20494;-43
2021/05/15 00:53:29;;;;;;;1.90;0.80;;;18.10;46.50;;;;;;5010037;28;20213;-42
2021/05/15 00:55:55;;;;;;;1.80;0.80;;;18.10;46.30;;;;;;5006500;28;20221;-42
2021/05/15 00:58:21;;;;;;;0.97;0.80;;;18.20;46.30;;;;;;4998154;28;20669;-42
2021/05/15 01:00:47;;;;;;;2.40;1.07;;;18.20;46.40;;;;;;5005247;28;20509;-42
2021/05/15 01:03:13;;;;;;;2.70;1.10;;;18.40;46.30;;;;;;5003612;28;20202;-42
2021/05/15 01:05:38;;;;;;;0.77;0.77;;;18.40;46.00;;;;;;5007086;28;20190;-44
2021/05/15 01:08:04;;;;;;;3.20;0.90;;;18.40;46.00;;;;;;5006230;28;20194;-42
2021/05/15 01:10:30;;;;;;;0.83;0.83;;;18.50;45.90;;;;;;5006641;28;20273;-42
2021/05/15 01:12:57;;;;;;;1.23;0.80;;;18.40;45.80;;;;;;5007726;28;20220;-42
2021/05/15 01:15:25;;;;;;;1.17;1.00;;;18.30;46.10;;;;;;5009301;28;20209;-42
2021/05/15 01:17:54;;;;;;;1.10;0.90;;;18.40;46.20;;;;;;5009399;28;20807;-42
2021/05/15 01:20:22;;;;;;;0.87;0.87;;;18.40;45.90;;;;;;5005218;28;20449;-42
2021/05/15 01:22:49;;;;;;;1.00;0.90;;;18.40;46.00;;;;;;5004785;28;20479;-43
2021/05/15 01:25:16;;;;;;;1.13;1.00;;;18.50;45.80;;;;;;5004988;28;20453;-42
2021/05/15 01:27:42;;;;;;;1.43;0.90;;;18.50;45.50;;;;;;5004809;28;20583;-42
2021/05/15 01:30:09;;;;;;;1.90;0.90;;;18.50;45.60;;;;;;5008729;28;20514;-44
2021/05/15 01:32:41;;;;;;;1.20;1.10;;;18.60;45.50;;;;;;5011434;28;20448;-42
2021/05/15 01:35:07;;;;;;;0.97;0.90;;;18.60;45.30;;;;;;5009193;28;20499;-42
2021/05/15 01:37:34;;;;;;;1.10;1.00;;;18.60;45.50;;;;;;5007083;28;20440;-42
2021/05/15 01:40:01;;;;;;;2.17;0.80;;;18.60;45.50;;;;;;5005839;28;20450;-42
2021/05/15 01:42:26;;;;;;;0.90;0.90;;;18.60;45.60;;;;;;5002810;28;20486;-41
2021/05/15 01:44:52;;;;;;;1.37;0.90;;;18.50;45.80;;;;;;5008890;28;20444;-41
2021/05/15 01:47:17;;;;;;;1.17;0.80;;;18.50;46.00;;;;;;5011285;28;20198;-43
2021/05/15 01:49:47;;;;;;;1.33;1.10;;;18.40;46.10;;;;;;5004701;28;20192;-42
2021/05/15 01:52:13;;;;;;;1.00;0.73;;;18.40;46.30;;;;;;5004286;28;20205;-44
2021/05/15 01:54:38;;;;;;;0.97;0.87;;;18.40;46.40;;;;;;5011086;28;20452;-41
2021/05/15 01:57:04;;;;;;;1.10;1.00;;;18.30;46.30;;;;;;5004001;28;20536;-42
2021/05/15 01:59:30;;;;;;;2.13;1.20;;;18.30;46.20;;;;;;5006443;28;20202;-42
2021/05/15 02:01:55;;;;;;;3.13;1.03;;;18.30;46.00;;;;;;5007460;28;20223;-42
2021/05/15 02:04:21;;;;;;;1.03;0.80;;;18.30;46.00;;;;;;5005321;28;20224;-43
2021/05/15 02:06:47;;;;;;;0.90;0.90;;;18.30;46.00;;;;;;5005835;28;20209;-42
2021/05/15 02:09:12;;;;;;;1.20;1.10;;;18.30;46.40;;;;;;5003158;28;20280;-42
2021/05/15 02:11:39;;;;;;;0.80;0.80;;;18.20;46.40;;;;;;5002768;28;20202;-41
2021/05/15 02:14:04;;;;;;;2.90;1.00;;;18.10;46.90;;;;;;5010320;28;20225;-42
2021/05/15 02:16:30;;;;;;;2.77;1.50;;;17.90;47.10;;;;;;4994216;28;20944;-41
2021/05/15 02:18:56;;;;;;;1.13;0.97;;;17.80;46.90;;;;;;5008775;28;20190;-42
2021/05/15 02:21:21;;;;;;;2.00;0.87;;;17.60;47.40;;;;;;5006332;28;20248;-42
2021/05/15 02:23:47;;;;;;;1.10;1.00;;;17.70;47.30;;;;;;5006989;28;20340;-42
2021/05/15 02:26:13;;;;;;;0.80;0.80;;;17.60;47.50;;;;;;5011825;28;20193;-42
2021/05/15 02:28:38;;;;;;;1.27;0.80;;;17.60;47.50;;;;;;5006120;28;20206;-42
2021/05/15 02:31:04;;;;;;;5.20;0.90;;;17.60;47.50;;;;;;5003537;28;20190;-42
2021/05/15 02:33:29;;;;;;;1.37;1.10;;;17.40;47.60;;;;;;5008828;28;20541;-41
2021/05/15 02:35:55;;;;;;;1.17;1.00;;;16.90;48.20;;;;;;5008685;28;20238;-41
2021/05/15 02:38:21;;;;;;;1.90;1.13;;;17.00;48.60;;;;;;5008061;28;20241;-41
2021/05/15 02:40:47;;;;;;;1.23;1.03;;;17.10;48.30;;;;;;5008260;28;20208;-41
2021/05/15 02:43:16;;;;;;;1.73;1.00;;;17.00;49.20;;;;;;5006816;28;20452;-42
2021/05/15 02:45:42;;;;;;;1.80;0.87;;;17.00;48.60;;;;;;5007142;28;20437;-41
2021/05/15 02:48:08;;;;;;;1.23;1.13;;;17.20;48.50;;;;;;5009234;28;20519;-41
2021/05/15 02:50:35;;;;;;;1.60;1.23;;;17.20;48.20;;;;;;5006130;28;20437;-41
2021/05/15 02:53:01;;;;;;;1.77;0.90;;;17.30;48.00;;;;;;5005572;28;20532;-41
2021/05/15 02:55:26;;;;;;;1.00;0.90;;;17.40;48.20;;;;;;4997948;28;20571;-42
2021/05/15 02:57:55;;;;;;;1.53;1.30;;;17.30;47.90;;;;;;5010731;28;20198;-42
2021/05/15 03:00:26;;;;;;;1.30;1.10;;;17.30;47.90;;;;;;5002159;28;20446;-42
2021/05/15 03:02:52;;;;;;;1.57;0.93;;;17.20;48.10;;;;;;5005694;28;20459;-41
2021/05/15 03:05:20;;;;;;;1.10;1.00;;;16.80;49.20;;;;;;5001045;28;20784;-43
2021/05/15 03:07:47;;;;;;;2.30;1.10;;;16.80;49.70;;;;;;5002970;28;20449;-41
2021/05/15 03:10:12;;;;;;;1.10;0.93;;;17.00;49.10;;;;;;5004460;28;20452;-41
2021/05/15 03:12:39;;;;;;;1.03;0.90;;;17.20;48.50;;;;;;5004391;28;20433;-42
2021/05/15 03:15:07;;;;;;;0.97;0.93;;;17.30;48.20;;;;;;5004493;28;20233;-41
2021/05/15 03:17:35;;;;;;;1.07;0.97;;;17.00;48.30;;;;;;5009426;28;20437;-43
2021/05/15 03:20:00;;;;;;;6.20;1.10;;;17.00;48.30;;;;;;5007871;28;20836;-42
2021/05/15 03:22:26;;;;;;;1.10;1.00;;;16.60;48.90;;;;;;5004327;28;20445;-41
2021/05/15 03:24:52;;;;;;;0.97;0.87;;;16.50;49.50;;;;;;5001791;28;20198;-42
2021/05/15 03:27:17;;;;;;;2.23;1.00;;;16.60;49.50;;;;;;5003525;28;20328;-42
2021/05/15 03:29:43;;;;;;;1.13;0.83;;;16.70;49.30;;;;;;5009766;28;20190;-42
2021/05/15 03:32:10;;;;;;;2.00;0.90;;;16.70;49.10;;;;;;5004526;28;20198;-41
2021/05/15 03:34:35;;;;;;;0.83;0.77;;;16.90;49.00;;;;;;5006145;28;20201;-42
2021/05/15 03:37:01;;;;;;;1.73;1.10;;;16.80;48.90;;;;;;5006832;28;20952;-42
2021/05/15 03:39:27;;;;;;;1.60;1.20;;;16.70;49.00;;;;;;5010507;28;20261;-42
2021/05/15 03:41:52;;;;;;;1.67;1.00;;;16.70;49.30;;;;;;5006192;28;20198;-42
2021/05/15 03:44:18;;;;;;;1.27;1.00;;;16.80;48.90;;;;;;5008780;28;20237;-41
2021/05/15 03:46:44;;;;;;;3.23;1.17;;;16.90;48.70;;;;;;5002017;28;20277;-42
2021/05/15 03:49:09;;;;;;;2.30;1.27;;;17.00;48.60;;;;;;5002786;28;20268;-42
2021/05/15 03:51:35;;;;;;;1.50;1.00;;;17.10;48.40;;;;;;5005353;28;20193;-43
2021/05/15 03:54:02;;;;;;;2.50;1.20;;;17.20;48.20;;;;;;5008656;28;20190;-43
2021/05/15 03:56:27;;;;;;;1.57;0.93;;;17.10;47.80;;;;;;5000886;28;20964;-43
2021/05/15 03:58:53;;;;;;;1.10;1.00;;;17.20;47.80;;;;;;5009303;28;20449;-41
2021/05/15 04:01:20;;;;;;;0.80;0.80;;;17.20;47.60;;;;;;5006643;28;20668;-42
2021/05/15 04:03:46;;;;;;;1.93;1.10;;;17.00;47.80;;;;;;5007430;28;20858;-41
2021/05/15 04:06:12;;;;;;;1.17;1.13;;;16.90;48.00;;;;;;5008091;28;20445;-41
2021/05/15 04:08:37;;;;;;;2.07;0.93;;;17.00;47.90;;;;;;5005711;28;20641;-42
2021/05/15 04:11:03;;;;;;;1.40;1.30;;;17.00;47.90;;;;;;5000428;28;20273;-41
2021/05/15 04:13:39;;;;;;;1.73;1.20;;;17.10;47.90;;;;;;5007631;28;20204;-42
2021/05/15 04:16:26;;;;;;;0.80;0.80;;;17.20;48.10;;;;;;5010634;28;20232;-42
2021/05/15 04:18:52;;;;;;;2.23;1.20;;;17.30;47.80;;;;;;5003289;28;20448;-42
2021/05/15 04:21:18;;;;;;;1.60;0.83;;;17.40;47.40;;;;;;5008520;28;20453;-42
2021/05/15 04:23:43;;;;;;;1.70;0.80;;;17.50;47.40;;;;;;5004820;28;20811;-42
2021/05/15 04:26:11;;;;;;;1.73;1.20;;;17.40;47.70;;;;;;5012536;28;20194;-42
2021/05/15 04:28:37;;;;;;;1.37;0.90;;;17.20;47.80;;;;;;5002887;28;20206;-49
2021/05/15 04:31:03;;;;;;;1.67;1.00;;;17.30;47.80;;;;;;5009135;28;20440;-41
2021/05/15 04:33:28;;;;;;;1.07;0.97;;;17.40;47.70;;;;;;5011569;28;20425;-42
2021/05/15 04:35:58;;;;;;;1.03;0.70;;;17.20;47.90;;;;;;5011039;28;20371;-42
2021/05/15 04:38:24;;;;;;;1.30;0.80;;;17.30;48.10;;;;;;5006393;28;20750;-42
2021/05/15 04:40:50;;;;;;;2.70;1.10;;;17.30;47.80;;;;;;5010596;28;20467;-42
2021/05/15 04:43:16;;;;;;;1.23;0.97;;;17.30;47.50;;;;;;5012515;28;20455;-41
2021/05/15 04:45:42;;;;;;;2.00;1.00;;;17.40;47.80;;;;;;5009400;28;20444;-43
2021/05/15 04:48:09;;;;;;;7.37;4.13;;;17.30;48.00;;;;;;5010495;28;20198;-41
2021/05/15 04:50:35;;;;;;;12.53;5.23;;;17.20;48.30;;;;;;5007234;28;20456;-42
2021/05/15 04:53:01;;;;;;;7.13;4.30;;;16.90;48.90;;;;;;5005546;28;20437;-43
2021/05/15 04:55:27;;;;;;;3.50;2.10;;;17.00;49.10;;;;;;4996963;28;20237;-42
2021/05/15 04:57:52;;;;;;;2.00;1.50;;;17.00;49.00;;;;;;5010060;28;20560;-44
2021/05/15 05:00:18;;;;;;;1.80;1.40;;;17.00;49.10;;;;;;5004289;28;20447;-41
2021/05/15 05:02:44;;;;;;;1.93;1.53;;;17.20;48.60;;;;;;5007860;28;20567;-42
2021/05/15 05:05:10;;;;;;;1.67;1.23;;;17.40;48.40;;;;;;5005984;28;20237;-43
2021/05/15 05:07:35;;;;;;;2.50;1.53;;;17.60;48.00;;;;;;5005385;28;20646;-42
2021/05/15 05:10:01;;;;;;;1.03;0.93;;;17.60;47.80;;;;;;5005339;28;20217;-41
2021/05/15 05:12:26;;;;;;;1.17;0.90;;;17.50;47.70;;;;;;5005758;28;20225;-43
2021/05/15 05:14:52;;;;;;;1.47;0.90;;;17.40;47.60;;;;;;5012213;28;20198;-44
2021/05/15 05:17:18;;;;;;;0.80;0.80;;;17.10;48.20;;;;;;5008203;28;20193;-42
2021/05/15 05:19:43;;;;;;;1.63;1.03;;;17.40;48.10;;;;;;5008200;28;20256;-42
2021/05/15 05:22:09;;;;;;;2.17;0.93;;;17.50;47.90;;;;;;5003624;28;20198;-42
2021/05/15 05:24:34;;;;;;;6.97;1.37;;;17.70;48.40;;;;;;5001604;28;20198;-42
2021/05/15 05:27:03;;;;;;;1.60;0.80;;;17.80;47.70;;;;;;5000120;28;20205;-43
2021/05/15 05:29:29;;;;;;;1.07;0.80;;;18.00;47.20;;;;;;5008154;28;20221;-43
2021/05/15 05:31:55;;;;;;;2.10;1.10;;;18.20;46.50;;;;;;5009334;28;20453;-43
2021/05/15 05:34:21;;;;;;;3.33;0.90;;;18.50;46.30;;;;;;5004357;28;20445;-43
2021/05/15 05:36:47;;;;;;;0.90;0.80;;;18.60;45.90;;;;;;5010021;28;20492;-42
2021/05/15 05:39:16;;;;;;;2.90;0.87;;;18.60;46.50;;;;;;5005421;28;20238;-42
2021/05/15 05:41:43;;;;;;;3.60;0.90;;;18.80;46.20;;;;;;5000125;28;20491;-43
2021/05/15 05:44:09;;;;;;;1.27;0.93;;;19.00;45.40;;;;;;5011519;28;20488;-45
2021/05/15 05:46:34;;;;;;;1.03;1.00;;;19.20;44.70;;;;;;5011951;28;20438;-46
2021/05/15 05:49:00;;;;;;;1.00;0.90;;;19.10;44.50;;;;;;5008754;28;20280;-44
2021/05/15 05:51:26;;;;;;;3.80;1.17;;;19.10;44.60;;;;;;5009775;28;20214;-42
2021/05/15 05:53:52;;;;;;;1.47;0.70;;;19.10;44.50;;;;;;5011225;28;20871;-45
2021/05/15 05:56:18;;;;;;;1.30;0.73;;;19.20;44.50;;;;;;5008983;28;20527;-43
2021/05/15 05:58:46;;;;;;;1.23;1.10;;;19.10;44.30;;;;;;5008577;28;20471;-43
2021/05/15 06:01:16;;;;;;;1.43;0.70;;;19.10;44.30;;;;;;5011511;28;20448;-46
2021/05/15 06:03:42;;;;;;;1.23;1.00;;;18.90;44.40;;;;;;5007661;28;20425;-42
2021/05/15 06:06:08;;;;;;;2.80;0.97;;;18.90;44.60;;;;;;5012261;28;20806;-42
2021/05/15 06:08:34;;;;;;;2.17;0.97;;;19.00;44.60;;;;;;5019840;28;20432;-42
2021/05/15 06:11:00;;;;;;;1.07;1.00;;;18.90;44.60;;;;;;5012325;28;20437;-42
2021/05/15 06:13:26;;;;;;;1.57;1.00;;;19.00;44.70;;;;;;5007825;28;20218;-42
2021/05/15 06:15:52;;;;;;;1.00;0.90;;;19.00;44.70;;;;;;5008302;28;20492;-42
2021/05/15 06:18:19;;;;;;;1.70;0.70;;;19.10;44.90;;;;;;4996217;28;20833;-42
2021/05/15 06:20:45;;;;;;;3.13;1.40;;;18.70;44.40;;;;;;5004110;28;20202;-42
2021/05/15 06:23:11;;;;;;;1.53;1.27;;;18.70;44.70;;;;;;5001806;28;20499;-43
2021/05/15 06:25:37;;;;;;;1.23;0.63;;;18.80;44.70;;;;;;5010600;28;20830;-42
2021/05/15 06:28:02;;;;;;;0.83;0.73;;;18.70;44.40;;;;;;4999108;28;20190;-42
2021/05/15 06:30:28;;;;;;;1.93;0.80;;;18.80;44.40;;;;;;5001224;28;20202;-42
2021/05/15 06:32:54;;;;;;;0.80;0.70;;;18.80;44.40;;;;;;5010014;28;20281;-42
2021/05/15 06:35:19;;;;;;;0.70;0.70;;;18.90;44.60;;;;;;5002368;28;20253;-42
2021/05/15 06:37:45;;;;;;;1.80;0.80;;;19.00;44.60;;;;;;4993866;28;20239;-42
2021/05/15 06:40:11;;;;;;;0.80;0.80;;;19.10;44.30;;;;;;5009302;28;20660;-42
2021/05/15 06:42:37;;;;;;;0.60;0.60;;;19.30;44.50;;;;;;5004845;28;20298;-43
2021/05/15 06:45:05;;;;;;;1.30;0.90;;;19.40;44.10;;;;;;5008650;28;20516;-42
2021/05/15 06:47:31;;;;;;;1.80;0.90;;;19.50;43.80;;;;;;5007955;28;20248;-42
2021/05/15 06:49:56;;;;;;;2.17;0.90;;;19.50;43.60;;;;;;5008327;28;20812;-41
2021/05/15 06:52:22;;;;;;;0.90;0.90;;;19.50;43.30;;;;;;5011116;28;20194;-44
2021/05/15 06:54:48;;;;;;;1.20;0.80;;;19.60;44.00;;;;;;5010530;28;20714;-42
2021/05/15 06:57:13;;;;;;;1.60;0.73;;;19.80;43.30;;;;;;5004495;28;20206;-44
2021/05/15 06:59:39;;;;;;;0.87;0.83;;;20.00;43.40;;;;;;5005200;28;20198;-42
2021/05/15 07:02:05;;;;;;;0.80;0.63;;;20.10;42.70;;;;;;4998952;28;20202;-43
2021/05/15 07:04:30;;;;;;;1.13;0.90;;;20.20;42.20;;;;;;5008243;28;20749;-44
2021/05/15 07:06:56;;;;;;;1.37;0.87;;;20.30;42.40;;;;;;5008851;28;20217;-42
2021/05/15 07:09:22;;;;;;;0.70;0.70;;;20.40;42.30;;;;;;5009453;28;20212;-45
2021/05/15 07:11:51;;;;;;;0.70;0.70;;;20.70;42.40;;;;;;5011403;28;20194;-42
2021/05/15 07:14:17;;;;;;;1.10;0.93;;;20.80;41.60;;;;;;5011157;28;20556;-43
2021/05/15 07:16:43;;;;;;;1.10;0.90;;;20.80;40.90;;;;;;5008010;28;20566;-42
2021/05/15 07:19:09;;;;;;;1.20;1.00;;;20.70;41.10;;;;;;4998522;28;20650;-44
2021/05/15 07:21:34;;;;;;;0.83;0.80;;;20.60;41.50;;;;;;5010602;28;20216;-44
2021/05/15 07:24:00;;;;;;;0.80;0.80;;;20.70;41.40;;;;;;5010897;28;20190;-43
2021/05/15 07:26:25;;;;;;;0.87;0.87;;;21.00;41.50;;;;;;5010853;28;20232;-44
2021/05/15 07:28:51;;;;;;;0.80;0.70;;;20.60;41.40;;;;;;4997062;28;20199;-43
2021/05/15 07:31:18;;;;;;;0.67;0.60;;;20.50;42.00;;;;;;5010026;28;20312;-45
2021/05/15 07:33:43;;;;;;;0.80;0.70;;;20.60;41.70;;;;;;5013546;28;20202;-43
2021/05/15 07:36:09;;;;;;;2.30;0.80;;;20.50;42.20;;;;;;5006701;28;20507;-42
2021/05/15 07:38:36;;;;;;;0.87;0.87;;;20.70;41.70;;;;;;5004013;28;20237;-46
2021/05/15 07:41:03;;;;;;;1.60;0.73;;;20.70;41.60;;;;;;5015108;28;20260;-43
2021/05/15 07:43:28;;;;;;;0.80;0.80;;;20.60;41.10;;;;;;5010752;28;20444;-44
2021/05/15 07:45:56;;;;;;;1.23;0.90;;;20.10;41.10;;;;;;5008119;28;20515;-46
2021/05/15 07:48:28;;;;;;;1.90;1.00;;;19.80;41.80;;;;;;5013231;28;20343;-43
2021/05/15 07:50:59;;;;;;;0.70;0.70;;;19.60;41.90;;;;;;5005742;28;20925;-42
2021/05/15 07:53:25;;;;;;;1.63;0.70;;;19.50;42.30;;;;;;4997351;28;20898;-44
2021/05/15 07:55:52;;;;;;;1.23;0.80;;;19.60;42.80;;;;;;5011003;28;20566;-45
2021/05/15 07:58:19;;;;;;;8.03;0.93;;;19.60;42.40;;;;;;5011025;28;20440;-45
2021/05/15 08:00:45;;;;;;;0.70;0.70;;;19.30;42.70;;;;;;5014330;28;20436;-46
2021/05/15 08:03:11;;;;;;;1.90;1.40;;;19.60;43.00;;;;;;5013023;28;20784;-44
2021/05/15 08:05:37;;;;;;;1.03;0.80;;;19.80;42.60;;;;;;5014117;28;20439;-43
2021/05/15 08:08:03;;;;;;;2.50;0.90;;;19.80;42.60;;;;;;4997555;28;20257;-43
2021/05/15 08:10:30;;;;;;;2.33;0.67;;;19.90;42.50;;;;;;5009561;28;20437;-42
2021/05/15 08:12:57;;;;;;;1.10;0.90;;;20.10;42.20;;;;;;4994727;28;20504;-45
2021/05/15 08:15:23;;;;;;;1.83;0.90;;;20.20;41.60;;;;;;5002131;28;20477;-42
2021/05/15 08:17:50;;;;;;;0.63;0.63;;;20.30;41.50;;;;;;5012899;28;20909;-41
2021/05/15 08:20:16;;;;;;;0.70;0.70;;;20.20;41.00;;;;;;5012571;28;20936;-42
2021/05/15 08:22:42;;;;;;;1.17;0.80;;;20.00;41.30;;;;;;5013603;28;20472;-42
2021/05/15 08:25:09;;;;;;;1.17;0.87;;;20.00;41.70;;;;;;5014463;28;20924;-42
2021/05/15 08:27:38;;;;;;;2.07;0.90;;;20.20;41.20;;;;;;5009231;28;20277;-43
2021/05/15 08:30:07;;;;;;;1.30;1.10;;;20.40;41.30;;;;;;4993063;28;20881;-43
2021/05/15 08:32:33;;;;;;;1.10;0.60;;;20.10;41.20;;;;;;4994171;28;20438;-42
2021/05/15 08:34:59;;;;;;;0.70;0.70;;;19.90;41.00;;;;;;4994740;28;20437;-45
2021/05/15 08:37:25;;;;;;;0.70;0.70;;;19.90;41.20;;;;;;4995568;28;20972;-42
2021/05/15 08:39:51;;;;;;;2.00;0.90;;;20.10;41.40;;;;;;5013858;28;20900;-42
2021/05/15 08:42:19;;;;;;;0.80;0.80;;;19.80;41.00;;;;;;4999840;28;20441;-42
2021/05/15 08:44:48;;;;;;;1.00;0.90;;;19.90;41.30;;;;;;4993361;28;20191;-42
2021/05/15 08:47:18;;;;;;;0.70;0.70;;;19.70;41.70;;;;;;5004054;28;20438;-42
2021/05/15 08:49:47;;;;;;;0.77;0.77;;;19.70;42.00;;;;;;4995289;28;20910;-42
2021/05/15 08:52:14;;;;;;;1.00;0.90;;;19.80;41.90;;;;;;5011111;28;20433;-42
2021/05/15 08:54:40;;;;;;;0.80;0.77;;;19.90;41.60;;;;;;5012817;28;20858;-42
2021/05/15 08:57:06;;;;;;;0.60;0.60;;;20.20;41.40;;;;;;5012114;28;21006;-42
2021/05/15 08:59:32;;;;;;;0.87;0.80;;;20.30;40.90;;;;;;5014087;28;20491;-42
2021/05/15 09:01:58;;;;;;;1.60;0.90;;;20.50;41.10;;;;;;5018524;28;20498;-42
2021/05/15 09:04:24;;;;;;;1.17;0.73;;;20.50;40.60;;;;;;5000145;28;20926;-43
2021/05/15 09:06:50;;;;;;;1.07;1.00;;;20.60;40.60;;;;;;5003624;28;20194;-45
2021/05/15 09:09:15;;;;;;;0.93;0.83;;;20.60;40.40;;;;;;5009171;28;20430;-42
2021/05/15 09:11:42;;;;;;;1.10;1.00;;;20.80;40.70;;;;;;5010631;28;20864;-42
2021/05/15 09:14:15;;;;;;;1.73;0.87;;;20.70;39.70;;;;;;5002924;28;20316;-41
2021/05/15 09:16:52;;;;;;;1.00;0.90;;;20.30;40.20;;;;;;5002999;28;20520;-41
2021/05/15 09:19:23;;;;;;;0.93;0.80;;;20.20;40.30;;;;;;5006109;28;20471;-42
2021/05/15 09:22:05;;;;;;;1.10;0.70;;;20.10;41.00;;;;;;5008079;28;20465;-42
2021/05/15 09:24:34;;;;;;;0.90;0.70;;;19.90;40.50;;;;;;5008677;28;20491;-42
2021/05/15 09:27:01;;;;;;;0.70;0.70;;;20.10;40.30;;;;;;5003577;28;20467;-41
2021/05/15 09:29:39;;;;;;;1.77;0.80;;;20.20;40.30;;;;;;5005468;28;20460;-42
2021/05/15 09:32:05;;;;;;;0.80;0.80;;;20.20;40.30;;;;;;5004413;28;20442;-44
2021/05/15 09:34:30;;;;;;;0.77;0.70;;;20.10;40.20;;;;;;5010048;28;20459;-42
2021/05/15 09:36:56;;;;;;;1.03;0.83;;;20.00;40.40;;;;;;5009611;28;20245;-44
2021/05/15 09:39:23;;;;;;;1.17;0.90;;;20.30;40.30;;;;;;5008668;28;20233;-44
2021/05/15 09:41:51;;;;;;;0.80;0.70;;;20.40;40.10;;;;;;5007848;28;20460;-42
2021/05/15 09:44:20;;;;;;;0.70;0.67;;;20.40;41.00;;;;;;5009433;28;20441;-43
2021/05/15 09:46:47;;;;;;;1.40;1.03;;;20.50;40.70;;;;;;5008308;28;20560;-42
2021/05/15 09:49:14;;;;;;;1.90;0.80;;;20.60;40.30;;;;;;5009419;28;20948;-43
2021/05/15 09:51:52;;;;;;;1.50;0.90;;;20.90;40.40;;;;;;5006805;28;20452;-43
2021/05/15 09:54:21;;;;;;;1.90;1.33;;;21.20;39.80;;;;;;5008015;28;20475;-41
2021/05/15 09:57:04;;;;;;;1.20;1.10;;;21.30;39.00;;;;;;5005972;28;21140;-42
2021/05/15 09:59:32;;;;;;;0.97;0.77;;;21.40;38.80;;;;;;5007479;28;20445;-42
2021/05/15 10:02:06;;;;;;;0.80;0.80;;;21.30;38.40;;;;;;5007733;28;20817;-43
2021/05/15 10:04:32;;;;;;;1.90;0.90;;;21.00;39.10;;;;;;5010653;28;20433;-45
2021/05/15 10:06:59;;;;;;;1.17;0.60;;;20.80;39.40;;;;;;5010534;28;20925;-45
2021/05/15 10:09:33;;;;;;;0.80;0.80;;;20.80;39.60;;;;;;5007164;28;20425;-45
2021/05/15 10:12:01;;;;;;;1.90;0.87;;;21.00;39.50;;;;;;5005777;28;20445;-41
2021/05/15 10:14:27;;;;;;;0.80;0.80;;;20.70;39.10;;;;;;5010695;28;20451;-42
2021/05/15 10:16:55;;;;;;;3.20;2.50;;;20.90;39.70;;;;;;5010919;28;20623;-43
2021/05/15 10:19:21;;;;;;;1.80;1.40;;;21.20;39.50;;;;;;5007337;28;20437;-42
2021/05/15 10:21:47;;;;;;;1.73;1.10;;;21.40;38.50;;;;;;5002103;28;20434;-41
2021/05/15 10:24:17;;;;;;;3.73;1.03;;;21.40;38.50;;;;;;5009043;28;20445;-41
2021/05/15 10:26:44;;;;;;;1.43;0.77;;;21.30;39.00;;;;;;5011065;28;20437;-41
2021/05/15 10:29:10;;;;;;;3.37;0.90;;;21.50;39.00;;;;;;5004640;28;20433;-43
2021/05/15 10:31:39;;;;;;;1.70;1.00;;;21.70;38.90;;;;;;5009293;28;20455;-41
2021/05/15 10:34:06;;;;;;;1.20;1.10;;;21.90;38.40;;;;;;5010203;28;20186;-41
2021/05/15 10:36:46;;;;;;;3.20;1.10;;;22.10;39.00;;;;;;5010875;28;20491;-42
2021/05/15 10:39:12;;;;;;;1.10;0.90;;;22.20;39.70;;;;;;5007398;28;20978;-41
2021/05/15 10:41:45;;;;;;;1.20;1.00;;;22.10;39.30;;;;;;5010520;28;20841;-42
2021/05/15 10:44:12;;;;;;;2.20;1.13;;;22.20;39.50;;;;;;4996359;28;20480;-44
2021/05/15 10:46:47;;;;;;;1.40;1.13;;;22.20;40.10;;;;;;5002143;28;20441;-43
2021/05/15 10:49:20;;;;;;;1.47;1.20;;;21.90;40.80;;;;;;5007482;28;20432;-44
2021/05/15 10:51:47;;;;;;;1.53;1.33;;;21.90;41.10;;;;;;5006950;28;20875;-47
2021/05/15 10:54:16;;;;;;;2.23;1.13;;;21.90;39.30;;;;;;5008931;28;20839;-43
2021/05/15 10:56:42;;;;;;;1.53;1.10;;;21.70;38.90;;;;;;5009192;28;20499;-47
2021/05/15 10:59:16;;;;;;;1.17;1.07;;;21.60;38.40;;;;;;5008347;28;20498;-45
2021/05/15 11:01:49;;;;;;;5.60;1.00;;;21.60;38.40;;;;;;5011341;28;20436;-44
2021/05/15 11:04:28;;;;;;;2.30;1.20;;;21.50;38.90;;;;;;5010946;28;20429;-46
2021/05/15 11:06:58;;;;;;;1.43;1.33;;;21.70;38.70;;;;;;5010745;28;20441;-43
2021/05/15 11:09:25;;;;;;;1.30;0.87;;;21.90;40.00;;;;;;5014550;28;20495;-45
2021/05/15 11:11:51;;;;;;;2.63;1.20;;;22.00;38.50;;;;;;5014929;28;20437;-44
2021/05/15 11:14:31;;;;;;;2.50;1.07;;;22.20;37.60;;;;;;5014017;28;20466;-44
2021/05/15 11:17:19;;;;;;;1.57;1.23;;;22.60;37.80;;;;;;5011991;28;20523;-42
2021/05/15 11:20:09;;;;;;;1.50;1.40;;;22.80;36.50;;;;;;5015165;28;20440;-47
2021/05/15 11:22:37;;;;;;;1.43;1.10;;;22.90;36.70;;;;;;5011368;28;20444;-47
2021/05/15 11:25:06;;;;;;;1.40;1.30;;;22.90;36.30;;;;;;5013931;28;20444;-46
2021/05/15 11:27:32;;;;;;;1.60;1.07;;;23.00;36.40;;;;;;5011276;28;20555;-46
2021/05/15 11:30:25;;;;;;;1.60;1.03;;;22.90;36.70;;;;;;5011102;28;20519;-43
2021/05/15 11:32:59;;;;;;;2.07;0.90;;;22.40;35.70;;;;;;5007937;28;20209;-45
2021/05/15 11:35:26;;;;;;;2.17;1.00;;;22.30;36.70;;;;;;5016152;28;20533;-43
2021/05/15 11:38:22;;;;;;;1.03;0.90;;;22.30;36.90;;;;;;5013010;28;20840;-42
2021/05/15 11:40:47;;;;;;;1.00;1.00;;;21.90;36.50;;;;;;5006775;28;20452;-43
2021/05/15 11:43:28;;;;;;;1.43;1.00;;;21.60;37.00;;;;;;5013038;28;20440;-42
2021/05/15 11:45:54;;;;;;;1.83;0.87;;;20.90;37.20;;;;;;5015850;28;20204;-42
2021/05/15 11:48:25;;;;;;;1.03;0.90;;;20.90;38.40;;;;;;5016430;28;20436;-42
2021/05/15 11:51:04;;;;;;;1.60;0.80;;;20.40;36.90;;;;;;5016671;28;20459;-42
2021/05/15 11:53:34;;;;;;;2.00;0.83;;;20.50;37.20;;;;;;5009870;28;20825;-42
2021/05/15 11:56:01;;;;;;;1.53;1.10;;;20.50;36.80;;;;;;5010129;28;20572;-41
2021/05/15 11:58:27;;;;;;;1.77;0.97;;;20.60;36.70;;;;;;5015412;28;20842;-42
2021/05/15 12:00:53;;;;;;;2.07;1.20;;;20.90;37.00;;;;;;5015251;28;20448;-41
2021/05/15 12:03:23;;;;;;;1.03;0.80;;;21.20;36.80;;;;;;5014684;28;20437;-41
2021/05/15 12:05:50;;;;;;;3.60;1.20;;;21.30;35.70;;;;;;5004024;28;20226;-41
2021/05/15 12:08:18;;;;;;;1.43;1.27;;;21.40;35.40;;;;;;5009361;28;20479;-42
2021/05/15 12:10:45;;;;;;;1.90;0.90;;;21.50;36.00;;;;;;5022869;28;20436;-42
2021/05/15 12:13:14;;;;;;;1.00;0.90;;;21.90;35.00;;;;;;5012109;28;20444;-42
2021/05/15 12:15:47;;;;;;;1.80;1.07;;;21.90;34.60;;;;;;5013999;28;20572;-42
2021/05/15 12:18:13;;;;;;;0.73;0.73;;;22.10;34.90;;;;;;5016144;28;20448;-41
2021/05/15 12:20:43;;;;;;;2.83;1.10;;;21.80;33.80;;;;;;5017374;28;20447;-41
2021/05/15 12:23:21;;;;;;;1.43;0.87;;;21.90;34.00;;;;;;5014275;28;20840;-41
2021/05/15 12:26:00;;;;;;;1.43;1.30;;;22.00;33.70;;;;;;5015455;28;20449;-43
2021/05/15 12:28:30;;;;;;;4.20;1.23;;;22.10;34.30;;;;;;5016948;28;20868;-42
2021/05/15 12:30:57;;;;;;;1.80;1.00;;;22.10;33.90;;;;;;5012397;28;20841;-44
2021/05/15 12:33:27;;;;;;;1.67;0.70;;;22.10;34.20;;;;;;5010575;28;20437;-42
2021/05/15 12:35:59;;;;;;;4.30;1.40;;;22.10;33.60;;;;;;5014793;28;21014;-42
2021/05/15 12:38:24;;;;;;;2.77;0.93;;;21.90;33.80;;;;;;5012585;28;21082;-42
2021/05/15 12:40:51;;;;;;;1.43;0.80;;;21.90;34.30;;;;;;5002943;28;20468;-43
2021/05/15 12:43:22;;;;;;;1.10;0.70;;;22.10;34.40;;;;;;5007971;28;20900;-42
2021/05/15 12:45:48;;;;;;;1.10;0.90;;;22.30;34.10;;;;;;5012755;28;20440;-43
2021/05/15 12:48:36;;;;;;;3.47;1.20;;;22.70;33.70;;;;;;5002532;28;20786;-42
2021/05/15 12:51:11;;;;;;;2.40;0.90;;;23.00;33.20;;;;;;5007258;28;20220;-43